Sea Blackhead, Ireland
Current Conditions -  °F | °C
As of 3:30 PM on Thursday 27 Nov 2014 (Local Time) from EIKN Reporting Station
Broken Clouds Broken Clouds  
Wind Chill: 36°   Ceiling: 4700
Heat Index: 43°   Visibility: 6mi
Dew Point: 41°   Wind: 14mph
Humidity: 93%   Direction: 120°ESE
Pressure: 29.38"   Gusts: NA
Location:  53.5°N, 10.33°W
Report Text: EIKN 271430Z 12012KT 090V150 9999 FEW017 BKN047 06/05 Q0995 NOSIG
Loading
Personal Weather Stations






























Interactive Weather Map New forecast layout! Learn more

10-Day Weather Forecast

Advertisements
Track Severe Weather on mobile